createdAt,value
2017-08-18T00:01:35.546Z,4.90
2017-08-18T00:04:02.236Z,4.47
2017-08-18T00:06:28.931Z,5.63
2017-08-18T00:08:55.626Z,5.60
2017-08-18T00:11:22.382Z,4.90
2017-08-18T00:13:49.183Z,4.30
2017-08-18T00:16:15.876Z,7.50
2017-08-18T00:18:42.619Z,4.67
2017-08-18T00:21:09.322Z,4.70
2017-08-18T00:23:35.992Z,3.77
2017-08-18T00:26:02.635Z,4.73
2017-08-18T00:28:29.340Z,4.00
2017-08-18T00:30:55.996Z,5.43
2017-08-18T00:33:22.640Z,5.60
2017-08-18T00:35:49.351Z,3.97
2017-08-18T00:38:16.138Z,5.00
2017-08-18T00:40:42.872Z,4.40
2017-08-18T00:43:09.600Z,4.60
2017-08-18T00:45:36.328Z,4.60
2017-08-18T00:48:02.964Z,4.70
2017-08-18T00:50:29.665Z,5.60
2017-08-18T00:52:56.354Z,4.40
2017-08-18T00:55:23.011Z,4.63
2017-08-18T00:57:49.686Z,5.90
2017-08-18T01:00:16.361Z,5.73
2017-08-18T01:02:43.102Z,4.13
2017-08-18T01:05:09.768Z,4.90
2017-08-18T01:07:36.419Z,4.77
2017-08-18T01:10:03.073Z,5.03
2017-08-18T01:12:29.702Z,4.40
2017-08-18T01:14:56.428Z,4.33
2017-08-18T01:17:23.102Z,4.33
2017-08-18T01:19:49.760Z,5.63
2017-08-18T01:22:16.457Z,5.70
2017-08-18T01:24:43.172Z,4.63
2017-08-18T01:27:09.840Z,3.60
2017-08-18T01:29:36.535Z,4.40
2017-08-18T01:32:03.191Z,6.57
2017-08-18T01:34:29.833Z,4.87
2017-08-18T01:36:56.553Z,5.07
2017-08-18T01:39:23.224Z,4.10
2017-08-18T01:41:49.866Z,4.57
2017-08-18T01:44:16.705Z,4.27
2017-08-18T01:46:43.380Z,6.00
2017-08-18T01:49:10.112Z,3.93
2017-08-18T01:51:36.872Z,5.23
2017-08-18T01:54:03.552Z,3.50
2017-08-18T01:56:30.236Z,6.57
2017-08-18T01:58:56.929Z,4.20
2017-08-18T02:01:23.593Z,4.20
2017-08-18T02:03:50.284Z,4.10
2017-08-18T02:06:17.031Z,3.37
2017-08-18T02:08:43.718Z,5.07
2017-08-18T02:11:10.375Z,4.23
2017-08-18T02:13:37.060Z,5.33
2017-08-18T02:16:03.778Z,4.10
2017-08-18T02:18:30.403Z,4.67
2017-08-18T02:20:57.045Z,7.00
2017-08-18T02:23:23.755Z,4.20
2017-08-18T02:25:50.399Z,5.17
2017-08-18T02:28:17.043Z,4.47
2017-08-18T02:30:43.753Z,4.57
2017-08-18T02:33:10.384Z,4.93
2017-08-18T02:35:37.038Z,4.40
2017-08-18T02:38:03.747Z,10.60
2017-08-18T02:40:30.394Z,4.67
2017-08-18T02:42:57.056Z,4.17
2017-08-18T02:45:23.812Z,6.73
2017-08-18T02:47:50.526Z,4.77
2017-08-18T02:50:17.236Z,4.40
2017-08-18T02:52:43.884Z,4.67
2017-08-18T02:55:10.648Z,7.00
2017-08-18T02:57:37.291Z,7.80
2017-08-18T03:00:03.956Z,5.30
2017-08-18T03:02:30.624Z,4.50
2017-08-18T03:04:57.282Z,4.07
2017-08-18T03:07:23.983Z,4.23
2017-08-18T03:09:50.635Z,5.57
2017-08-18T03:12:17.311Z,4.40
2017-08-18T03:14:43.959Z,6.03
2017-08-18T03:17:10.676Z,3.70
2017-08-18T03:19:37.343Z,5.73
2017-08-18T03:22:03.996Z,5.13
2017-08-18T03:24:30.700Z,4.33
2017-08-18T03:26:57.405Z,6.80
2017-08-18T03:29:24.083Z,3.60
2017-08-18T03:31:50.783Z,4.20
2017-08-18T03:34:17.475Z,4.03
2017-08-18T03:36:44.106Z,4.07
2017-08-18T03:39:10.770Z,5.13
2017-08-18T03:41:37.473Z,4.60
2017-08-18T03:44:04.112Z,5.10
2017-08-18T03:46:30.765Z,4.10
2017-08-18T03:48:57.449Z,5.07
2017-08-18T03:51:24.101Z,4.60
2017-08-18T03:53:50.787Z,5.43
2017-08-18T03:56:17.473Z,3.37
2017-08-18T03:58:44.118Z,3.87
2017-08-18T04:01:10.859Z,3.40
2017-08-18T04:03:37.497Z,3.67
2017-08-18T04:06:04.185Z,4.23
2017-08-18T04:08:30.848Z,8.70
2017-08-18T04:10:57.609Z,4.13
2017-08-18T04:13:24.251Z,4.43
2017-08-18T04:15:50.943Z,4.43
2017-08-18T04:18:17.581Z,6.57
2017-08-18T04:20:44.215Z,4.87
2017-08-18T04:23:10.914Z,4.30
2017-08-18T04:25:37.559Z,5.80
2017-08-18T04:28:04.297Z,4.83
2017-08-18T04:30:30.946Z,6.70
2017-08-18T04:32:57.572Z,4.17
2017-08-18T04:35:24.660Z,3.77
2017-08-18T04:37:51.448Z,4.80
2017-08-18T04:40:18.139Z,7.80
2017-08-18T04:42:44.798Z,9.87
2017-08-18T04:45:11.437Z,4.33
2017-08-18T04:47:38.115Z,4.47
2017-08-18T04:50:04.743Z,4.17
2017-08-18T04:52:31.368Z,9.43
2017-08-18T04:54:58.028Z,4.40
2017-08-18T04:57:24.719Z,4.00
2017-08-18T04:59:51.384Z,5.13
2017-08-18T05:02:18.941Z,4.87
2017-08-18T05:04:45.644Z,5.73
2017-08-18T05:07:12.330Z,6.07
2017-08-18T05:09:38.955Z,5.90
2017-08-18T05:12:05.634Z,7.00
2017-08-18T05:14:32.343Z,3.83
2017-08-18T05:16:58.982Z,5.80
2017-08-18T05:19:25.722Z,6.00
2017-08-18T05:21:52.391Z,5.10
2017-08-18T05:24:19.054Z,5.87
2017-08-18T05:26:46.269Z,5.23
2017-08-18T05:29:12.971Z,4.40
2017-08-18T05:31:39.619Z,4.47
2017-08-18T05:34:06.317Z,5.03
2017-08-18T05:36:32.957Z,5.20
2017-08-18T05:38:59.593Z,5.53
2017-08-18T05:41:26.274Z,5.23
2017-08-18T05:43:52.920Z,15.97
2017-08-18T05:46:19.601Z,9.97
2017-08-18T05:48:46.250Z,11.87
2017-08-18T05:51:12.901Z,4.73
2017-08-18T05:53:39.577Z,7.63
2017-08-18T05:56:06.260Z,5.10
2017-08-18T05:58:32.899Z,4.47
2017-08-18T06:00:59.580Z,4.30
2017-08-18T06:03:26.353Z,4.37
2017-08-18T06:05:53.002Z,5.53
2017-08-18T06:08:19.731Z,7.50
2017-08-18T06:10:46.370Z,6.33
2017-08-18T06:13:13.006Z,4.63
2017-08-18T06:15:39.679Z,4.40
2017-08-18T06:18:06.353Z,4.40
2017-08-18T06:20:32.995Z,4.40
2017-08-18T06:22:59.673Z,3.83
2017-08-18T06:25:26.327Z,8.67
2017-08-18T06:27:53.038Z,4.63
2017-08-18T06:30:19.683Z,4.23
2017-08-18T06:32:46.315Z,4.33
2017-08-18T06:35:12.987Z,4.23
2017-08-18T06:37:39.671Z,4.57
2017-08-18T06:40:06.306Z,4.20
2017-08-18T06:42:32.942Z,4.50
2017-08-18T06:44:59.631Z,4.77
2017-08-18T06:47:26.330Z,6.70
2017-08-18T06:49:52.956Z,7.17
2017-08-18T06:52:19.661Z,4.53
2017-08-18T06:54:46.298Z,11.57
2017-08-18T06:57:12.939Z,5.07
2017-08-18T06:59:39.629Z,5.30
2017-08-18T07:02:06.365Z,5.13
2017-08-18T07:04:33.001Z,4.80
2017-08-18T07:06:59.692Z,6.30
2017-08-18T07:09:26.392Z,5.40
2017-08-18T07:11:53.048Z,7.50
2017-08-18T07:14:19.685Z,7.40
2017-08-18T07:16:46.374Z,7.53
2017-08-18T07:19:13.014Z,6.10
2017-08-18T07:21:39.659Z,4.87
2017-08-18T07:24:06.340Z,7.03
2017-08-18T07:26:33.052Z,4.13
2017-08-18T07:28:59.728Z,4.60
2017-08-18T07:31:26.368Z,5.63
2017-08-18T07:33:53.039Z,8.10
2017-08-18T07:36:19.744Z,6.30
2017-08-18T07:38:46.547Z,10.13
2017-08-18T07:41:13.186Z,5.70
2017-08-18T07:43:39.926Z,6.83
2017-08-18T07:46:06.666Z,4.73
2017-08-18T07:48:33.307Z,5.20
2017-08-18T07:50:59.979Z,4.80
2017-08-18T07:53:26.604Z,4.90
2017-08-18T07:55:53.293Z,8.80
2017-08-18T07:58:19.988Z,5.40
2017-08-18T08:00:46.654Z,5.60
2017-08-18T08:03:13.286Z,5.20
2017-08-18T08:05:39.958Z,7.33
2017-08-18T08:08:06.650Z,5.43
2017-08-18T08:10:33.303Z,4.83
2017-08-18T08:12:59.991Z,5.47
2017-08-18T08:15:26.670Z,4.60
2017-08-18T08:17:53.307Z,8.07
2017-08-18T08:20:19.938Z,4.73
2017-08-18T08:22:46.610Z,4.33
2017-08-18T08:25:13.295Z,3.80
2017-08-18T08:27:40.024Z,7.87
2017-08-18T08:30:06.656Z,7.23
2017-08-18T08:32:33.402Z,5.17
2017-08-18T08:35:00.046Z,5.10
2017-08-18T08:37:26.781Z,4.30
2017-08-18T08:39:53.437Z,4.40
2017-08-18T08:42:20.088Z,6.33
2017-08-18T08:44:46.809Z,4.70
2017-08-18T08:47:13.537Z,5.53
2017-08-18T08:49:40.176Z,5.70
2017-08-18T08:52:06.847Z,4.70
2017-08-18T08:54:33.487Z,3.87
2017-08-18T08:57:00.118Z,4.73
2017-08-18T08:59:26.814Z,4.00
2017-08-18T09:01:53.478Z,5.73
2017-08-18T09:04:20.207Z,5.00
2017-08-18T09:06:46.903Z,5.13
2017-08-18T09:09:13.528Z,4.70
2017-08-18T09:11:40.998Z,4.13
2017-08-18T09:14:07.794Z,7.57
2017-08-18T09:16:34.461Z,4.57
2017-08-18T09:19:01.112Z,4.80
2017-08-18T09:21:27.808Z,3.70
2017-08-18T09:23:54.540Z,4.60
2017-08-18T09:26:21.183Z,3.80
2017-08-18T09:28:47.852Z,3.80
2017-08-18T09:31:14.547Z,3.77
2017-08-18T09:33:41.297Z,3.30
2017-08-18T09:36:07.987Z,3.60
2017-08-18T09:38:34.625Z,2.77
2017-08-18T09:41:01.297Z,2.80
2017-08-18T09:43:27.983Z,3.47
2017-08-18T09:45:54.632Z,2.97
2017-08-18T09:48:27.134Z,3.03
2017-08-18T09:50:59.629Z,4.33
2017-08-18T09:53:32.250Z,3.07
2017-08-18T09:56:04.778Z,2.83
2017-08-18T09:58:37.269Z,4.90
2017-08-18T10:01:03.915Z,4.30
2017-08-18T10:03:30.557Z,2.80
2017-08-18T10:05:57.245Z,2.70
2017-08-18T10:08:23.877Z,2.83
2017-08-18T10:10:50.543Z,4.00
2017-08-18T10:13:17.166Z,2.73
2017-08-18T10:15:43.807Z,2.40
2017-08-18T10:18:10.492Z,2.83
2017-08-18T10:20:37.144Z,5.53
2017-08-18T10:23:03.832Z,4.83
2017-08-18T10:25:30.597Z,2.53
2017-08-18T10:27:57.254Z,2.67
2017-08-18T10:30:23.891Z,3.30
2017-08-18T10:32:50.611Z,2.53
2017-08-18T10:35:17.249Z,2.50
2017-08-18T10:37:43.952Z,2.33
2017-08-18T10:40:11.388Z,3.13
2017-08-18T10:42:38.029Z,2.20
2017-08-18T10:45:04.724Z,2.60
2017-08-18T10:47:31.416Z,2.27
2017-08-18T10:49:58.053Z,2.47
2017-08-18T10:52:24.695Z,3.07
2017-08-18T10:54:51.397Z,2.23
2017-08-18T10:57:18.047Z,2.07
2017-08-18T10:59:44.691Z,2.67
2017-08-18T11:02:11.393Z,2.57
2017-08-18T11:04:38.039Z,2.00
2017-08-18T11:07:04.721Z,2.13
2017-08-18T11:09:31.361Z,1.77
2017-08-18T11:11:58.056Z,2.63
2017-08-18T11:14:24.705Z,2.60
2017-08-18T11:16:51.350Z,6.50
2017-08-18T11:19:18.042Z,2.10
2017-08-18T11:21:44.704Z,2.50
2017-08-18T11:24:11.388Z,2.37
2017-08-18T11:26:38.041Z,2.30
2017-08-18T11:29:04.719Z,2.00
2017-08-18T11:31:31.417Z,3.07
2017-08-18T11:33:58.098Z,2.67
2017-08-18T11:36:24.744Z,3.57
2017-08-18T11:38:51.415Z,2.10
2017-08-18T11:41:18.114Z,2.93
2017-08-18T11:43:44.764Z,2.20
2017-08-18T11:46:11.463Z,2.73
2017-08-18T11:48:38.233Z,2.03
2017-08-18T11:51:04.873Z,2.00
2017-08-18T11:53:31.563Z,1.97
2017-08-18T11:55:58.270Z,2.47
2017-08-18T11:58:24.908Z,3.03
2017-08-18T12:00:51.628Z,3.40
2017-08-18T12:03:18.309Z,2.00
2017-08-18T12:05:44.951Z,3.80
2017-08-18T12:08:11.747Z,3.10
2017-08-18T12:10:38.390Z,2.43
2017-08-18T12:13:05.032Z,2.90
2017-08-18T12:15:31.745Z,2.60
2017-08-18T12:17:58.392Z,2.47
2017-08-18T12:20:25.090Z,2.63
2017-08-18T12:22:51.788Z,2.70
2017-08-18T12:25:18.443Z,2.13
2017-08-18T12:27:45.160Z,2.40
2017-08-18T12:30:11.802Z,2.03
2017-08-18T12:32:38.488Z,2.43
2017-08-18T12:35:05.156Z,2.30
2017-08-18T12:37:31.823Z,2.13
2017-08-18T12:39:58.464Z,3.30
2017-08-18T12:42:25.146Z,2.17
2017-08-18T12:44:51.829Z,2.00
2017-08-18T12:47:18.450Z,2.43
2017-08-18T12:49:45.123Z,2.07
2017-08-18T12:52:11.793Z,1.97
2017-08-18T12:54:38.465Z,1.87
2017-08-18T12:57:05.114Z,2.00
2017-08-18T12:59:31.818Z,2.33
2017-08-18T13:01:58.500Z,4.07
2017-08-18T13:04:25.180Z,2.73
2017-08-18T13:06:51.902Z,2.80
2017-08-18T13:09:18.565Z,2.40
2017-08-18T13:11:45.315Z,3.03
2017-08-18T13:14:11.975Z,2.50
2017-08-18T13:16:38.668Z,2.77
2017-08-18T13:19:05.343Z,5.70
2017-08-18T13:21:32.024Z,2.63
2017-08-18T13:23:58.711Z,3.97
2017-08-18T13:26:25.423Z,2.40
2017-08-18T13:28:52.080Z,2.90
2017-08-18T13:31:18.719Z,2.50
2017-08-18T13:33:45.402Z,3.00
2017-08-18T13:36:12.097Z,2.87
2017-08-18T13:38:38.740Z,2.97
2017-08-18T13:41:05.451Z,2.90
2017-08-18T13:43:32.088Z,5.10
2017-08-18T13:45:58.728Z,2.53
2017-08-18T13:48:25.452Z,3.20
2017-08-18T13:50:52.095Z,2.30
2017-08-18T13:53:18.738Z,2.63
2017-08-18T13:55:45.416Z,3.53
2017-08-18T13:58:12.085Z,3.47
2017-08-18T14:00:38.835Z,3.57
2017-08-18T14:03:05.491Z,4.00
2017-08-18T14:05:32.180Z,3.73
2017-08-18T14:07:58.954Z,6.10
2017-08-18T14:10:25.623Z,3.57
2017-08-18T14:12:52.313Z,4.27
2017-08-18T14:15:19.008Z,4.40
2017-08-18T14:17:45.663Z,5.03
2017-08-18T14:20:12.309Z,4.20
2017-08-18T14:22:39.016Z,4.67
2017-08-18T14:25:20.571Z,4.23
2017-08-18T14:27:47.264Z,3.20
2017-08-18T14:30:13.940Z,3.90
2017-08-18T14:32:40.575Z,2.57
2017-08-18T14:35:07.240Z,4.00
2017-08-18T14:37:33.876Z,3.00
2017-08-18T14:40:00.567Z,3.50
2017-08-18T14:42:27.204Z,4.20
2017-08-18T14:44:53.899Z,3.00
2017-08-18T14:47:20.564Z,2.97
2017-08-18T14:49:47.212Z,2.97
2017-08-18T14:52:13.931Z,3.03
2017-08-18T14:54:40.593Z,3.03
2017-08-18T14:57:07.240Z,5.73
2017-08-18T14:59:34.019Z,4.23
2017-08-18T15:02:00.759Z,3.40
2017-08-18T15:04:27.396Z,2.93
2017-08-18T15:06:54.147Z,1.60
2017-08-18T15:09:20.795Z,4.50
2017-08-18T15:11:47.427Z,1.67
2017-08-18T15:14:14.107Z,3.93
2017-08-18T15:16:40.751Z,0.70
2017-08-18T15:19:07.426Z,6.40
2017-08-18T15:21:34.075Z,1.73
2017-08-18T15:24:00.789Z,0.80
2017-08-18T15:26:27.444Z,1.63
2017-08-18T15:28:54.144Z,0.90
2017-08-18T15:31:20.822Z,0.70
2017-08-18T15:33:47.471Z,1.83
2017-08-18T15:36:14.216Z,0.60
2017-08-18T15:38:40.920Z,3.23
2017-08-18T15:41:07.576Z,2.30
2017-08-18T15:43:34.237Z,1.00
2017-08-18T15:46:00.929Z,0.80
2017-08-18T15:48:27.624Z,2.27
2017-08-18T15:50:54.269Z,2.17
2017-08-18T15:53:20.920Z,2.90
2017-08-18T15:55:47.720Z,1.17
2017-08-18T15:58:14.366Z,1.67
2017-08-18T16:00:41.063Z,0.80
2017-08-18T16:03:07.712Z,4.50
2017-08-18T16:05:34.429Z,0.57
2017-08-18T16:08:01.071Z,2.20
2017-08-18T16:10:27.764Z,0.70
2017-08-18T16:12:54.480Z,1.03
2017-08-18T16:15:22.011Z,1.73
2017-08-18T16:17:48.675Z,0.70
2017-08-18T16:20:15.369Z,1.27
2017-08-18T16:22:42.044Z,2.07
2017-08-18T16:25:08.738Z,0.67
2017-08-18T16:27:35.382Z,0.80
2017-08-18T16:30:02.060Z,2.63
2017-08-18T16:32:28.755Z,0.90
2017-08-18T16:34:55.401Z,0.70
2017-08-18T16:37:22.120Z,1.07
2017-08-18T16:39:48.819Z,0.53
2017-08-18T16:42:15.527Z,0.60
2017-08-18T16:44:42.226Z,1.13
2017-08-18T16:47:08.924Z,0.87
2017-08-18T16:49:35.629Z,0.60
2017-08-18T16:52:02.308Z,0.40
2017-08-18T16:54:28.981Z,1.30
2017-08-18T16:56:55.653Z,2.20
2017-08-18T16:59:22.455Z,0.57
2017-08-18T17:01:50.003Z,0.63
2017-08-18T17:04:16.707Z,0.60
2017-08-18T17:06:43.471Z,0.50
2017-08-18T17:09:10.185Z,0.83
2017-08-18T17:11:36.810Z,0.57
2017-08-18T17:14:03.500Z,2.20
2017-08-18T17:16:30.133Z,2.27
2017-08-18T17:18:56.860Z,2.00
2017-08-18T17:21:23.562Z,0.40
2017-08-18T17:23:50.316Z,1.53
2017-08-18T17:26:17.041Z,1.00
2017-08-18T17:28:43.809Z,0.90
2017-08-18T17:31:10.499Z,2.97
2017-08-18T17:33:37.190Z,2.30
2017-08-18T17:36:03.903Z,0.60
2017-08-18T17:38:30.558Z,0.63
2017-08-18T17:40:57.244Z,1.40
2017-08-18T17:43:23.883Z,2.70
2017-08-18T17:45:50.576Z,2.73
2017-08-18T17:48:17.261Z,1.67
2017-08-18T17:50:43.954Z,0.60
2017-08-18T17:53:10.756Z,0.93
2017-08-18T17:55:37.523Z,0.63
2017-08-18T17:58:04.416Z,0.90
2017-08-18T18:00:31.644Z,1.60
2017-08-18T18:02:58.347Z,0.60
2017-08-18T18:05:25.353Z,3.23
2017-08-18T18:07:52.238Z,0.97
2017-08-18T18:10:19.265Z,1.87
2017-08-18T18:12:46.255Z,1.93
2017-08-18T18:15:12.978Z,0.90
2017-08-18T18:17:39.889Z,1.60
2017-08-18T18:20:06.675Z,3.33
2017-08-18T18:22:33.511Z,0.67
2017-08-18T18:25:00.470Z,1.53
2017-08-18T18:27:27.177Z,0.50
2017-08-18T18:29:53.860Z,2.03
2017-08-18T18:32:20.591Z,0.60
2017-08-18T18:34:47.254Z,0.43
2017-08-18T18:37:13.893Z,2.50
2017-08-18T18:39:40.587Z,0.80
2017-08-18T18:42:07.793Z,0.70
2017-08-18T18:44:34.520Z,0.70
2017-08-18T18:47:01.233Z,1.17
2017-08-18T18:49:27.944Z,1.20
2017-08-18T18:51:54.881Z,0.80
2017-08-18T18:54:21.624Z,1.00
2017-08-18T18:56:48.336Z,0.43
2017-08-18T18:59:15.131Z,0.50
2017-08-18T19:01:41.778Z,1.00
2017-08-18T19:04:08.526Z,0.87
2017-08-18T19:06:35.264Z,1.27
2017-08-18T19:09:01.968Z,0.97
2017-08-18T19:11:28.709Z,0.70
2017-08-18T19:13:55.448Z,1.07
2017-08-18T19:16:22.193Z,0.63
2017-08-18T19:18:48.924Z,2.30
2017-08-18T19:21:16.084Z,0.90
2017-08-18T19:23:42.869Z,0.60
2017-08-18T19:26:09.551Z,1.70
2017-08-18T19:28:36.234Z,1.17
2017-08-18T19:31:02.870Z,1.00
2017-08-18T19:33:29.610Z,1.23
2017-08-18T19:35:56.461Z,2.63
2017-08-18T19:38:23.206Z,3.73
2017-08-18T19:40:50.102Z,2.77
2017-08-18T19:43:16.983Z,0.73
2017-08-18T19:45:43.802Z,0.40
2017-08-18T19:48:10.585Z,0.73
2017-08-18T19:50:37.321Z,0.80
2017-08-18T19:53:04.152Z,1.23
2017-08-18T19:55:30.885Z,0.60
2017-08-18T19:57:57.678Z,0.50
2017-08-18T20:00:24.470Z,0.60
2017-08-18T20:02:51.272Z,1.23
2017-08-18T20:05:18.078Z,0.57
2017-08-18T20:07:44.824Z,0.40
2017-08-18T20:10:11.578Z,0.60
2017-08-18T20:12:38.531Z,0.70
2017-08-18T20:15:05.308Z,1.57
2017-08-18T20:17:32.066Z,1.00
2017-08-18T20:19:58.805Z,1.23
2017-08-18T20:22:25.466Z,1.57
2017-08-18T20:24:52.161Z,0.40
2017-08-18T20:27:18.839Z,1.27
2017-08-18T20:29:45.545Z,1.03
2017-08-18T20:32:12.190Z,1.13
2017-08-18T20:34:38.879Z,0.90
2017-08-18T20:37:05.624Z,3.90
2017-08-18T20:39:32.313Z,0.83
2017-08-18T20:41:59.001Z,2.00
2017-08-18T20:44:25.734Z,1.00
2017-08-18T20:46:52.437Z,1.33
2017-08-18T20:49:19.154Z,1.17
2017-08-18T20:51:45.874Z,1.23
2017-08-18T20:54:12.522Z,1.13
2017-08-18T20:56:39.220Z,1.27
2017-08-18T20:59:06.086Z,1.17
2017-08-18T21:01:32.734Z,1.03
2017-08-18T21:03:59.522Z,0.60
2017-08-18T21:06:26.218Z,0.83
2017-08-18T21:08:52.921Z,1.10
2017-08-18T21:11:19.571Z,0.70
2017-08-18T21:13:46.273Z,1.20
2017-08-18T21:16:12.939Z,0.80
2017-08-18T21:18:39.600Z,0.90
2017-08-18T21:21:06.343Z,0.83
2017-08-18T21:23:33.163Z,2.20
2017-08-18T21:25:59.854Z,0.80
2017-08-18T21:28:26.530Z,0.67
2017-08-18T21:30:53.175Z,2.47
2017-08-18T21:33:19.891Z,1.43
2017-08-18T21:35:46.544Z,3.27
2017-08-18T21:38:13.308Z,2.27
2017-08-18T21:40:40.023Z,1.33
2017-08-18T21:43:06.687Z,0.83
2017-08-18T21:45:33.341Z,0.83
2017-08-18T21:48:00.071Z,1.70
2017-08-18T21:50:26.735Z,0.80
2017-08-18T21:52:53.408Z,2.20
2017-08-18T21:55:20.100Z,0.67
2017-08-18T21:57:46.749Z,2.07
2017-08-18T22:00:13.456Z,0.80
2017-08-18T22:02:40.354Z,0.97
2017-08-18T22:05:06.989Z,1.27
2017-08-18T22:07:33.697Z,1.97
2017-08-18T22:10:00.474Z,0.70
2017-08-18T22:12:27.118Z,1.57
2017-08-18T22:14:53.864Z,1.87
2017-08-18T22:17:20.524Z,3.47
2017-08-18T22:19:47.224Z,0.90
2017-08-18T22:22:13.970Z,1.70
2017-08-18T22:24:40.808Z,1.53
2017-08-18T22:27:07.464Z,2.87
2017-08-18T22:29:34.168Z,1.80
2017-08-18T22:32:00.849Z,1.37
2017-08-18T22:34:27.510Z,1.40
2017-08-18T22:36:54.211Z,1.00
2017-08-18T22:39:21.082Z,1.47
2017-08-18T22:41:47.808Z,2.50
2017-08-18T22:44:14.764Z,1.50
2017-08-18T22:46:41.408Z,1.30
2017-08-18T22:49:08.179Z,1.10
2017-08-18T22:51:35.016Z,3.20
2017-08-18T22:54:01.797Z,1.93
2017-08-18T22:56:28.471Z,1.80
2017-08-18T22:58:55.130Z,3.63
2017-08-18T23:01:21.823Z,1.57
2017-08-18T23:03:48.494Z,3.57
2017-08-18T23:06:15.233Z,1.50
2017-08-18T23:08:41.887Z,1.00
2017-08-18T23:11:08.567Z,1.00
2017-08-18T23:13:35.248Z,1.20
2017-08-18T23:16:01.944Z,1.90
2017-08-18T23:18:28.623Z,1.23
2017-08-18T23:20:55.335Z,1.27
2017-08-18T23:23:21.958Z,2.40
2017-08-18T23:25:48.661Z,1.57
2017-08-18T23:28:15.296Z,2.30
2017-08-18T23:30:41.927Z,1.50
2017-08-18T23:33:09.436Z,1.20
2017-08-18T23:35:36.123Z,2.83
2017-08-18T23:38:02.811Z,1.20
2017-08-18T23:40:29.486Z,1.67
2017-08-18T23:42:56.161Z,2.10
2017-08-18T23:45:22.845Z,4.50
2017-08-18T23:47:49.500Z,1.63
2017-08-18T23:50:16.214Z,1.20
2017-08-18T23:52:42.858Z,1.10
2017-08-18T23:55:09.546Z,1.80
2017-08-18T23:57:36.226Z,1.53
